createdAt,value
2018-07-19T00:04:18.318Z,19.40
2018-07-19T00:09:09.246Z,19.30
2018-07-19T00:14:00.146Z,19.30
2018-07-19T00:18:51.090Z,19.30
2018-07-19T00:23:41.997Z,19.20
2018-07-19T00:28:32.894Z,19.20
2018-07-19T00:33:23.804Z,19.10
2018-07-19T00:38:14.706Z,19.10
2018-07-19T00:43:06.409Z,19.00
2018-07-19T00:47:57.298Z,19.00
2018-07-19T00:52:48.190Z,19.00
2018-07-19T00:57:39.098Z,19.00
2018-07-19T01:02:30.002Z,18.90
2018-07-19T01:07:21.643Z,18.80
2018-07-19T01:12:13.290Z,18.80
2018-07-19T01:17:04.269Z,18.80
2018-07-19T01:21:55.175Z,18.80
2018-07-19T01:26:46.075Z,18.70
2018-07-19T01:31:36.984Z,18.70
2018-07-19T01:36:27.912Z,18.60
2018-07-19T01:41:18.812Z,18.60
2018-07-19T01:46:09.711Z,18.50
2018-07-19T01:51:00.679Z,18.50
2018-07-19T01:55:51.580Z,18.40
2018-07-19T02:00:42.476Z,18.40
2018-07-19T02:05:33.385Z,18.30
2018-07-19T02:10:25.044Z,18.30
2018-07-19T02:15:15.982Z,18.20
2018-07-19T02:20:06.894Z,18.20
2018-07-19T02:24:57.800Z,18.20
2018-07-19T02:29:48.754Z,18.10
2018-07-19T02:34:41.142Z,18.10
2018-07-19T02:39:32.791Z,18.00
2018-07-19T02:44:23.755Z,18.00
2018-07-19T02:49:14.668Z,18.00
2018-07-19T02:54:05.554Z,18.00
2018-07-19T02:58:59.078Z,17.90
2018-07-19T03:03:49.995Z,17.90
2018-07-19T03:08:41.019Z,17.90
2018-07-19T03:13:31.910Z,17.80
2018-07-19T03:18:22.814Z,17.80
2018-07-19T03:23:13.711Z,17.80
2018-07-19T03:28:05.415Z,17.70
2018-07-19T03:32:56.318Z,17.70
2018-07-19T03:37:47.239Z,17.70
2018-07-19T03:42:38.154Z,17.70
2018-07-19T03:47:29.067Z,17.60
2018-07-19T03:52:19.976Z,17.60
2018-07-19T03:57:10.878Z,17.60
2018-07-19T04:02:01.932Z,17.60
2018-07-19T04:06:52.744Z,17.60
2018-07-19T04:11:43.650Z,17.60
2018-07-19T04:16:34.600Z,17.60
2018-07-19T04:21:25.611Z,17.60
2018-07-19T04:26:16.519Z,17.60
2018-07-19T04:31:07.565Z,17.60
2018-07-19T04:35:58.527Z,17.60
2018-07-19T04:40:49.508Z,17.60
2018-07-19T04:45:40.720Z,17.70
2018-07-19T04:50:31.621Z,17.70
2018-07-19T04:55:22.578Z,17.70
2018-07-19T05:00:14.219Z,17.90
2018-07-19T05:05:05.210Z,17.80
2018-07-19T05:09:56.231Z,17.90
2018-07-19T05:14:47.276Z,18.00
2018-07-19T05:19:38.186Z,18.00
2018-07-19T05:24:29.108Z,18.10
2018-07-19T05:29:20.242Z,18.10
2018-07-19T05:34:11.874Z,18.20
2018-07-19T05:39:02.768Z,18.20
2018-07-19T05:43:53.822Z,18.30
2018-07-19T05:48:45.466Z,18.50
2018-07-19T05:53:37.110Z,18.50
2018-07-19T05:58:28.079Z,18.50
2018-07-19T06:03:18.994Z,18.60
2018-07-19T06:08:09.915Z,18.70
2018-07-19T06:13:00.838Z,18.80
2018-07-19T06:17:51.747Z,18.90
2018-07-19T06:22:42.680Z,18.90
2018-07-19T06:27:35.386Z,19.00
2018-07-19T06:32:26.279Z,19.10
2018-07-19T06:37:17.918Z,19.30
2018-07-19T06:42:09.639Z,19.40
2018-07-19T06:47:01.283Z,19.50
2018-07-19T06:51:52.175Z,19.50
2018-07-19T06:56:43.838Z,19.70
2018-07-19T07:01:34.734Z,19.70
2018-07-19T07:06:25.656Z,19.80
2018-07-19T07:11:16.666Z,20.00
2018-07-19T07:16:07.574Z,20.10
2018-07-19T07:20:58.491Z,20.20
2018-07-19T07:25:49.379Z,20.40
2018-07-19T07:30:40.281Z,20.50
2018-07-19T07:35:31.971Z,20.80
2018-07-19T07:40:22.901Z,20.80
2018-07-19T07:45:13.811Z,21.00
2018-07-19T07:50:04.706Z,21.10
2018-07-19T07:54:55.651Z,21.30
2018-07-19T07:59:46.559Z,21.40
2018-07-19T08:04:37.466Z,21.60
2018-07-19T08:09:28.377Z,21.70
2018-07-19T08:14:19.279Z,22.00
2018-07-19T08:19:10.183Z,22.10
2018-07-19T08:24:01.874Z,22.50
2018-07-19T08:28:52.775Z,22.50
2018-07-19T08:33:43.686Z,22.70
2018-07-19T08:38:34.611Z,22.80
2018-07-19T08:43:25.520Z,22.90
2018-07-19T08:48:16.424Z,23.10
2018-07-19T08:53:07.319Z,23.20
2018-07-19T08:57:58.962Z,23.40
2018-07-19T09:02:50.611Z,23.50
2018-07-19T09:07:41.593Z,23.50
2018-07-19T09:12:39.591Z,23.70
2018-07-19T09:17:30.496Z,23.80
2018-07-19T09:22:21.399Z,23.90
2018-07-19T09:27:12.303Z,23.90
2018-07-19T09:32:03.198Z,24.00
2018-07-19T09:36:54.090Z,24.10
2018-07-19T09:41:45.773Z,24.20
2018-07-19T09:46:36.637Z,24.20
2018-07-19T09:51:28.552Z,24.30
2018-07-19T09:56:19.455Z,24.30
2018-07-19T10:01:10.355Z,24.40
2018-07-19T10:06:01.251Z,24.40
2018-07-19T10:10:52.891Z,24.40
2018-07-19T10:15:43.812Z,24.40
2018-07-19T10:20:34.773Z,24.40
2018-07-19T10:25:25.723Z,24.40
2018-07-19T10:30:17.418Z,24.50
2018-07-19T10:35:09.011Z,24.60
2018-07-19T10:40:00.656Z,24.50
2018-07-19T10:44:51.554Z,24.50
2018-07-19T10:49:43.212Z,24.50
2018-07-19T10:54:34.843Z,24.60
2018-07-19T10:59:26.475Z,24.60
2018-07-19T11:04:18.110Z,24.70
2018-07-19T11:09:09.755Z,24.70
2018-07-19T11:14:01.416Z,24.80
2018-07-19T11:18:52.306Z,24.80
2018-07-19T11:23:43.938Z,25.00
2018-07-19T11:28:35.574Z,25.10
2018-07-19T11:33:27.214Z,25.20
2018-07-19T11:38:18.978Z,25.20
2018-07-19T11:43:09.866Z,25.20
2018-07-19T11:48:01.503Z,25.40
2018-07-19T11:52:53.134Z,25.50
2018-07-19T11:57:44.772Z,25.60
2018-07-19T12:02:36.416Z,25.80
2018-07-19T12:07:28.052Z,26.00
2018-07-19T12:12:18.946Z,25.90
2018-07-19T12:17:10.601Z,26.10
2018-07-19T12:22:02.292Z,26.20
2018-07-19T12:26:53.192Z,26.20
2018-07-19T12:31:44.074Z,26.20
2018-07-19T12:36:35.702Z,26.30
2018-07-19T12:41:27.338Z,26.40
2018-07-19T12:46:18.975Z,26.50
2018-07-19T12:51:10.606Z,26.60
2018-07-19T12:56:02.247Z,26.70
2018-07-19T13:00:53.899Z,26.80
2018-07-19T13:05:44.788Z,26.70
2018-07-19T13:10:36.426Z,26.90
2018-07-19T13:15:28.072Z,26.90
2018-07-19T13:20:19.706Z,27.00
2018-07-19T13:25:11.355Z,27.20
2018-07-19T13:30:02.239Z,27.20
2018-07-19T13:34:53.140Z,27.40
2018-07-19T13:39:44.031Z,27.50
2018-07-19T13:44:34.937Z,27.50
2018-07-19T13:49:25.849Z,27.60
2018-07-19T13:54:16.730Z,27.70
2018-07-19T13:59:09.099Z,27.70
2018-07-19T14:04:00.801Z,27.80
2018-07-19T14:08:52.373Z,27.80
2018-07-19T14:13:44.007Z,27.80
2018-07-19T14:18:35.642Z,27.90
2018-07-19T14:23:27.274Z,28.00
2018-07-19T14:28:18.910Z,28.10
2018-07-19T14:33:10.536Z,28.40
2018-07-19T14:38:02.166Z,28.60
2018-07-19T14:42:53.050Z,28.50
2018-07-19T14:47:43.931Z,28.80
2018-07-19T14:52:35.087Z,29.00
2018-07-19T14:57:26.081Z,29.20
2018-07-19T15:02:17.030Z,29.40
2018-07-19T15:07:07.935Z,29.60
2018-07-19T15:11:58.818Z,29.90
2018-07-19T15:16:50.460Z,30.20
2018-07-19T15:21:41.356Z,30.20
2018-07-19T15:26:33.000Z,30.50
2018-07-19T15:31:24.642Z,30.50
2018-07-19T15:36:15.624Z,30.60
2018-07-19T15:41:06.518Z,30.60
2018-07-19T15:45:57.416Z,30.60
2018-07-19T15:50:48.371Z,30.50
2018-07-19T15:55:39.258Z,30.40
2018-07-19T16:00:30.146Z,30.20
2018-07-19T16:05:21.766Z,29.80
2018-07-19T16:10:12.678Z,29.80
2018-07-19T16:15:04.303Z,29.50
2018-07-19T16:19:55.188Z,29.50
2018-07-19T16:24:46.083Z,29.30
2018-07-19T16:29:36.967Z,29.20
2018-07-19T16:34:27.842Z,29.00
2018-07-19T16:39:18.754Z,28.80
2018-07-19T16:44:09.707Z,28.70
2018-07-19T16:49:00.596Z,28.50
2018-07-19T16:53:51.482Z,28.30
2018-07-19T16:58:43.111Z,28.00
2018-07-19T17:03:34.795Z,27.80
2018-07-19T17:08:25.758Z,27.80
2018-07-19T17:13:16.639Z,27.60
2018-07-19T17:18:07.535Z,27.50
2018-07-19T17:22:58.431Z,27.30
2018-07-19T17:27:50.066Z,26.90
2018-07-19T17:32:41.694Z,26.80
2018-07-19T17:37:33.326Z,26.60
2018-07-19T17:42:24.964Z,26.50
2018-07-19T17:47:15.944Z,26.50
2018-07-19T17:52:06.831Z,26.40
2018-07-19T17:56:57.727Z,26.20
2018-07-19T18:01:49.370Z,25.90
2018-07-19T18:06:40.258Z,25.90
2018-07-19T18:11:31.327Z,25.70
2018-07-19T18:16:22.280Z,25.60
2018-07-19T18:21:13.911Z,25.40
2018-07-19T18:26:04.796Z,25.30
2018-07-19T18:30:55.692Z,25.20
2018-07-19T18:35:47.323Z,25.00
2018-07-19T18:40:41.048Z,24.80
2018-07-19T18:45:32.024Z,24.80
2018-07-19T18:50:23.809Z,24.60
2018-07-19T18:55:14.770Z,24.50
2018-07-19T19:00:06.484Z,24.30
2018-07-19T19:04:57.370Z,24.20
2018-07-19T19:09:48.309Z,24.10
2018-07-19T19:14:39.966Z,23.80
2018-07-19T19:19:31.011Z,23.70
2018-07-19T19:24:22.746Z,23.50
2018-07-19T19:29:14.436Z,23.40
2018-07-19T19:34:05.334Z,23.30
2018-07-19T19:38:56.296Z,23.20
2018-07-19T19:43:47.232Z,23.10
2018-07-19T19:48:38.232Z,22.90
2018-07-19T19:53:29.130Z,22.80
2018-07-19T19:58:20.102Z,22.60
2018-07-19T20:03:11.733Z,22.20
2018-07-19T20:08:03.370Z,22.10
2018-07-19T20:12:55.013Z,21.90
2018-07-19T20:17:46.688Z,21.80
2018-07-19T20:22:37.587Z,21.70
2018-07-19T20:27:28.485Z,21.60
2018-07-19T20:32:20.130Z,21.20
2018-07-19T20:37:11.060Z,21.20
2018-07-19T20:42:02.008Z,21.10
2018-07-19T20:46:52.926Z,20.90
2018-07-19T20:51:43.860Z,20.80
2018-07-19T20:56:34.756Z,20.60
2018-07-19T21:01:25.652Z,20.50
2018-07-19T21:06:16.571Z,20.30
2018-07-19T21:11:07.464Z,20.20
2018-07-19T21:15:59.106Z,19.90
2018-07-19T21:20:50.766Z,19.70
2018-07-19T21:25:41.659Z,19.70
2018-07-19T21:30:33.291Z,19.40
2018-07-19T21:35:24.922Z,19.30
2018-07-19T21:40:16.546Z,19.20
2018-07-19T21:45:07.446Z,19.10
2018-07-19T21:49:58.373Z,19.00
2018-07-19T21:54:49.263Z,18.90
2018-07-19T21:59:40.179Z,18.80
2018-07-19T22:04:31.076Z,18.60
2018-07-19T22:09:21.976Z,18.50
2018-07-19T22:14:13.632Z,18.30
2018-07-19T22:19:04.527Z,18.30
2018-07-19T22:23:55.498Z,18.20
2018-07-19T22:28:46.415Z,18.10
2018-07-19T22:33:37.310Z,18.00
2018-07-19T22:38:35.244Z,17.90
2018-07-19T22:43:26.361Z,17.80
2018-07-19T22:48:17.239Z,17.70
2018-07-19T22:53:08.150Z,17.60
2018-07-19T22:57:59.039Z,17.50
2018-07-19T23:02:50.734Z,17.30
2018-07-19T23:07:41.651Z,17.30
2018-07-19T23:12:32.586Z,17.20
2018-07-19T23:17:23.495Z,17.10
2018-07-19T23:22:14.382Z,17.00
2018-07-19T23:27:05.280Z,16.90
2018-07-19T23:31:56.918Z,16.70
2018-07-19T23:36:48.560Z,16.70
2018-07-19T23:41:39.446Z,16.60
2018-07-19T23:46:30.331Z,16.60
2018-07-19T23:51:21.219Z,16.50
2018-07-19T23:56:12.114Z,16.40
